sensor_id;sensor_type;location;lat;lon;timestamp;P1;durP1;ratioP1;P2;durP2;ratioP2
22270;SDS011;11304;53.520;10.104;2023-01-24T00:01:11;33.85;;;18.70;;
22270;SDS011;11304;53.520;10.104;2023-01-24T00:03:37;27.45;;;16.50;;
22270;SDS011;11304;53.520;10.104;2023-01-24T00:06:03;30.08;;;16.42;;
22270;SDS011;11304;53.520;10.104;2023-01-24T00:08:29;34.65;;;17.38;;
22270;SDS011;11304;53.520;10.104;2023-01-24T00:10:59;30.92;;;17.13;;
22270;SDS011;11304;53.520;10.104;2023-01-24T00:13:25;33.53;;;18.05;;
22270;SDS011;11304;53.520;10.104;2023-01-24T00:16:00;30.88;;;17.30;;
22270;SDS011;11304;53.520;10.104;2023-01-24T00:18:26;24.67;;;16.25;;
22270;SDS011;11304;53.520;10.104;2023-01-24T00:20:54;28.30;;;17.15;;
22270;SDS011;11304;53.520;10.104;2023-01-24T00:23:25;28.70;;;16.85;;
22270;SDS011;11304;53.520;10.104;2023-01-24T00:25:51;26.52;;;15.95;;
22270;SDS011;11304;53.520;10.104;2023-01-24T00:28:17;29.80;;;17.13;;
22270;SDS011;11304;53.520;10.104;2023-01-24T00:30:43;27.75;;;15.20;;
22270;SDS011;11304;53.520;10.104;2023-01-24T00:33:09;26.02;;;15.50;;
22270;SDS011;11304;53.520;10.104;2023-01-24T00:35:35;28.13;;;16.30;;
22270;SDS011;11304;53.520;10.104;2023-01-24T00:38:01;30.10;;;17.38;;
22270;SDS011;11304;53.520;10.104;2023-01-24T00:40:27;28.42;;;15.90;;
22270;SDS011;11304;53.520;10.104;2023-01-24T00:42:53;29.50;;;17.65;;
22270;SDS011;11304;53.520;10.104;2023-01-24T00:45:19;28.70;;;17.45;;
22270;SDS011;11304;53.520;10.104;2023-01-24T00:47:45;33.17;;;17.70;;
22270;SDS011;11304;53.520;10.104;2023-01-24T00:50:12;32.97;;;17.52;;
22270;SDS011;11304;53.520;10.104;2023-01-24T00:52:38;32.15;;;17.70;;
22270;SDS011;11304;53.520;10.104;2023-01-24T00:55:04;31.48;;;16.73;;
22270;SDS011;11304;53.520;10.104;2023-01-24T00:57:30;28.50;;;16.85;;
22270;SDS011;11304;53.520;10.104;2023-01-24T00:59:56;31.38;;;18.15;;
22270;SDS011;11304;53.520;10.104;2023-01-24T01:02:22;27.10;;;16.20;;
22270;SDS011;11304;53.520;10.104;2023-01-24T01:04:48;28.80;;;16.58;;
22270;SDS011;11304;53.520;10.104;2023-01-24T01:07:14;31.45;;;17.05;;
22270;SDS011;11304;53.520;10.104;2023-01-24T01:09:41;30.25;;;16.92;;
22270;SDS011;11304;53.520;10.104;2023-01-24T01:12:07;29.35;;;17.00;;
22270;SDS011;11304;53.520;10.104;2023-01-24T01:14:33;30.35;;;16.75;;
22270;SDS011;11304;53.520;10.104;2023-01-24T01:16:59;28.60;;;16.55;;
22270;SDS011;11304;53.520;10.104;2023-01-24T01:19:25;28.50;;;17.45;;
22270;SDS011;11304;53.520;10.104;2023-01-24T01:21:51;28.17;;;16.75;;
22270;SDS011;11304;53.520;10.104;2023-01-24T01:24:17;26.60;;;15.95;;
22270;SDS011;11304;53.520;10.104;2023-01-24T01:26:43;31.02;;;16.85;;
22270;SDS011;11304;53.520;10.104;2023-01-24T01:29:09;32.38;;;16.92;;
22270;SDS011;11304;53.520;10.104;2023-01-24T01:31:36;27.27;;;16.48;;
22270;SDS011;11304;53.520;10.104;2023-01-24T01:34:02;31.27;;;17.60;;
22270;SDS011;11304;53.520;10.104;2023-01-24T01:36:28;32.50;;;17.30;;
22270;SDS011;11304;53.520;10.104;2023-01-24T01:38:55;31.27;;;17.23;;
22270;SDS011;11304;53.520;10.104;2023-01-24T01:41:21;27.17;;;16.23;;
22270;SDS011;11304;53.520;10.104;2023-01-24T01:43:47;29.25;;;16.15;;
22270;SDS011;11304;53.520;10.104;2023-01-24T01:46:40;27.08;;;16.15;;
22270;SDS011;11304;53.520;10.104;2023-01-24T01:49:09;31.98;;;16.40;;
22270;SDS011;11304;53.520;10.104;2023-01-24T01:51:45;28.65;;;15.80;;
22270;SDS011;11304;53.520;10.104;2023-01-24T01:54:18;29.42;;;16.27;;
22270;SDS011;11304;53.520;10.104;2023-01-24T01:56:49;29.08;;;16.45;;
22270;SDS011;11304;53.520;10.104;2023-01-24T01:59:21;29.60;;;16.00;;
22270;SDS011;11304;53.520;10.104;2023-01-24T02:01:48;27.83;;;16.30;;
22270;SDS011;11304;53.520;10.104;2023-01-24T02:04:22;27.20;;;15.52;;
22270;SDS011;11304;53.520;10.104;2023-01-24T02:09:18;27.20;;;16.27;;
22270;SDS011;11304;53.520;10.104;2023-01-24T02:11:46;30.63;;;16.55;;
22270;SDS011;11304;53.520;10.104;2023-01-24T02:14:13;33.13;;;17.95;;
22270;SDS011;11304;53.520;10.104;2023-01-24T02:17:01;29.15;;;16.73;;
22270;SDS011;11304;53.520;10.104;2023-01-24T02:22:25;27.75;;;16.25;;
22270;SDS011;11304;53.520;10.104;2023-01-24T02:24:52;28.63;;;15.82;;
22270;SDS011;11304;53.520;10.104;2023-01-24T02:27:20;31.33;;;16.15;;
22270;SDS011;11304;53.520;10.104;2023-01-24T02:29:46;26.17;;;16.20;;
22270;SDS011;11304;53.520;10.104;2023-01-24T02:32:12;26.40;;;15.85;;
22270;SDS011;11304;53.520;10.104;2023-01-24T02:34:40;29.92;;;16.90;;
22270;SDS011;11304;53.520;10.104;2023-01-24T02:37:10;27.42;;;15.73;;
22270;SDS011;11304;53.520;10.104;2023-01-24T02:39:46;30.42;;;15.48;;
22270;SDS011;11304;53.520;10.104;2023-01-24T02:42:17;27.05;;;16.00;;
22270;SDS011;11304;53.520;10.104;2023-01-24T02:44:58;30.52;;;17.40;;
22270;SDS011;11304;53.520;10.104;2023-01-24T02:47:29;32.90;;;17.92;;
22270;SDS011;11304;53.520;10.104;2023-01-24T02:49:58;28.85;;;16.35;;
22270;SDS011;11304;53.520;10.104;2023-01-24T02:52:25;30.88;;;16.98;;
22270;SDS011;11304;53.520;10.104;2023-01-24T02:55:10;29.02;;;16.38;;
22270;SDS011;11304;53.520;10.104;2023-01-24T02:57:37;28.83;;;15.63;;
22270;SDS011;11304;53.520;10.104;2023-01-24T03:00:21;30.70;;;16.85;;
22270;SDS011;11304;53.520;10.104;2023-01-24T03:02:47;25.88;;;16.80;;
22270;SDS011;11304;53.520;10.104;2023-01-24T03:05:14;27.15;;;16.42;;
22270;SDS011;11304;53.520;10.104;2023-01-24T03:07:40;33.00;;;16.58;;
22270;SDS011;11304;53.520;10.104;2023-01-24T03:10:09;27.90;;;16.80;;
22270;SDS011;11304;53.520;10.104;2023-01-24T03:12:36;27.02;;;15.85;;
22270;SDS011;11304;53.520;10.104;2023-01-24T03:15:20;25.17;;;14.85;;
22270;SDS011;11304;53.520;10.104;2023-01-24T03:18:05;25.42;;;14.88;;
22270;SDS011;11304;53.520;10.104;2023-01-24T03:20:50;27.65;;;14.30;;
22270;SDS011;11304;53.520;10.104;2023-01-24T03:23:35;24.23;;;15.55;;
22270;SDS011;11304;53.520;10.104;2023-01-24T03:26:20;23.77;;;14.38;;
22270;SDS011;11304;53.520;10.104;2023-01-24T03:29:05;29.33;;;15.55;;
22270;SDS011;11304;53.520;10.104;2023-01-24T03:31:50;26.08;;;13.73;;
22270;SDS011;11304;53.520;10.104;2023-01-24T03:34:34;28.33;;;15.45;;
22270;SDS011;11304;53.520;10.104;2023-01-24T03:37:10;24.08;;;13.88;;
22270;SDS011;11304;53.520;10.104;2023-01-24T03:39:36;28.75;;;14.88;;
22270;SDS011;11304;53.520;10.104;2023-01-24T03:42:26;28.75;;;16.13;;
22270;SDS011;11304;53.520;10.104;2023-01-24T03:44:52;27.85;;;15.10;;
22270;SDS011;11304;53.520;10.104;2023-01-24T03:47:19;26.55;;;15.63;;
22270;SDS011;11304;53.520;10.104;2023-01-24T03:49:45;28.13;;;16.20;;
22270;SDS011;11304;53.520;10.104;2023-01-24T03:52:30;26.15;;;14.55;;
22270;SDS011;11304;53.520;10.104;2023-01-24T03:54:57;28.75;;;16.13;;
22270;SDS011;11304;53.520;10.104;2023-01-24T03:57:23;30.27;;;15.93;;
22270;SDS011;11304;53.520;10.104;2023-01-24T03:59:49;23.85;;;14.13;;
22270;SDS011;11304;53.520;10.104;2023-01-24T04:02:16;21.55;;;13.45;;
22270;SDS011;11304;53.520;10.104;2023-01-24T04:04:42;24.65;;;15.00;;
22270;SDS011;11304;53.520;10.104;2023-01-24T04:07:27;21.88;;;13.38;;
22270;SDS011;11304;53.520;10.104;2023-01-24T04:09:53;21.25;;;12.63;;
22270;SDS011;11304;53.520;10.104;2023-01-24T04:12:19;25.05;;;13.88;;
22270;SDS011;11304;53.520;10.104;2023-01-24T04:14:45;20.67;;;13.10;;
22270;SDS011;11304;53.520;10.104;2023-01-24T04:17:12;24.65;;;14.52;;
22270;SDS011;11304;53.520;10.104;2023-01-24T04:19:38;20.45;;;13.40;;
22270;SDS011;11304;53.520;10.104;2023-01-24T04:22:04;24.88;;;14.10;;
22270;SDS011;11304;53.520;10.104;2023-01-24T04:24:30;23.15;;;13.50;;
22270;SDS011;11304;53.520;10.104;2023-01-24T04:26:56;24.30;;;13.20;;
22270;SDS011;11304;53.520;10.104;2023-01-24T04:29:22;11.40;;;7.35;;
22270;SDS011;11304;53.520;10.104;2023-01-24T04:31:48;9.10;;;6.22;;
22270;SDS011;11304;53.520;10.104;2023-01-24T04:34:14;19.98;;;10.48;;
22270;SDS011;11304;53.520;10.104;2023-01-24T04:36:40;14.77;;;9.77;;
22270;SDS011;11304;53.520;10.104;2023-01-24T04:39:06;14.80;;;8.45;;
22270;SDS011;11304;53.520;10.104;2023-01-24T04:41:32;12.75;;;7.85;;
22270;SDS011;11304;53.520;10.104;2023-01-24T04:43:59;11.32;;;7.57;;
22270;SDS011;11304;53.520;10.104;2023-01-24T04:46:25;11.80;;;7.32;;
22270;SDS011;11304;53.520;10.104;2023-01-24T04:48:51;10.43;;;7.43;;
22270;SDS011;11304;53.520;10.104;2023-01-24T04:51:17;12.75;;;7.93;;
22270;SDS011;11304;53.520;10.104;2023-01-24T04:53:43;16.38;;;9.23;;
22270;SDS011;11304;53.520;10.104;2023-01-24T04:56:09;17.92;;;10.00;;
22270;SDS011;11304;53.520;10.104;2023-01-24T04:58:36;23.20;;;10.32;;
22270;SDS011;11304;53.520;10.104;2023-01-24T05:01:02;14.32;;;9.10;;
22270;SDS011;11304;53.520;10.104;2023-01-24T05:03:28;12.55;;;8.30;;
22270;SDS011;11304;53.520;10.104;2023-01-24T05:05:55;11.55;;;8.43;;
22270;SDS011;11304;53.520;10.104;2023-01-24T05:08:21;10.65;;;7.30;;
22270;SDS011;11304;53.520;10.104;2023-01-24T05:10:47;11.82;;;6.75;;
22270;SDS011;11304;53.520;10.104;2023-01-24T05:13:14;9.93;;;5.55;;
22270;SDS011;11304;53.520;10.104;2023-01-24T05:15:47;14.27;;;5.28;;
22270;SDS011;11304;53.520;10.104;2023-01-24T05:18:13;19.25;;;7.07;;
22270;SDS011;11304;53.520;10.104;2023-01-24T05:20:39;8.43;;;5.13;;
22270;SDS011;11304;53.520;10.104;2023-01-24T05:23:05;6.90;;;4.90;;
22270;SDS011;11304;53.520;10.104;2023-01-24T05:25:31;6.57;;;4.15;;
22270;SDS011;11304;53.520;10.104;2023-01-24T05:27:57;8.25;;;4.80;;
22270;SDS011;11304;53.520;10.104;2023-01-24T05:30:23;6.88;;;4.50;;
22270;SDS011;11304;53.520;10.104;2023-01-24T05:32:49;7.30;;;4.90;;
22270;SDS011;11304;53.520;10.104;2023-01-24T05:35:15;9.50;;;5.35;;
22270;SDS011;11304;53.520;10.104;2023-01-24T05:37:42;7.88;;;5.60;;
22270;SDS011;11304;53.520;10.104;2023-01-24T05:40:08;11.35;;;6.55;;
22270;SDS011;11304;53.520;10.104;2023-01-24T05:42:34;10.73;;;6.75;;
22270;SDS011;11304;53.520;10.104;2023-01-24T05:45:00;14.07;;;7.88;;
22270;SDS011;11304;53.520;10.104;2023-01-24T05:47:26;9.63;;;5.63;;
22270;SDS011;11304;53.520;10.104;2023-01-24T05:49:52;12.90;;;6.22;;
22270;SDS011;11304;53.520;10.104;2023-01-24T05:52:18;12.07;;;6.13;;
22270;SDS011;11304;53.520;10.104;2023-01-24T05:54:48;11.18;;;6.90;;
22270;SDS011;11304;53.520;10.104;2023-01-24T05:57:14;12.63;;;7.03;;
22270;SDS011;11304;53.520;10.104;2023-01-24T05:59:40;12.18;;;7.85;;
22270;SDS011;11304;53.520;10.104;2023-01-24T06:02:06;12.05;;;7.68;;
22270;SDS011;11304;53.520;10.104;2023-01-24T06:04:32;12.60;;;7.63;;
22270;SDS011;11304;53.520;10.104;2023-01-24T06:06:59;10.95;;;7.50;;
22270;SDS011;11304;53.520;10.104;2023-01-24T06:09:25;13.07;;;6.93;;
22270;SDS011;11304;53.520;10.104;2023-01-24T06:11:51;9.45;;;5.50;;
22270;SDS011;11304;53.520;10.104;2023-01-24T06:14:17;9.13;;;4.85;;
22270;SDS011;11304;53.520;10.104;2023-01-24T06:16:43;8.90;;;5.18;;
22270;SDS011;11304;53.520;10.104;2023-01-24T06:19:10;14.40;;;5.95;;
22270;SDS011;11304;53.520;10.104;2023-01-24T06:21:52;9.52;;;5.90;;
22270;SDS011;11304;53.520;10.104;2023-01-24T06:24:23;9.43;;;5.40;;
22270;SDS011;11304;53.520;10.104;2023-01-24T06:26:51;8.68;;;5.47;;
22270;SDS011;11304;53.520;10.104;2023-01-24T06:29:17;11.80;;;6.38;;
22270;SDS011;11304;53.520;10.104;2023-01-24T06:39:33;9.82;;;6.13;;
22270;SDS011;11304;53.520;10.104;2023-01-24T06:41:59;10.43;;;6.38;;
22270;SDS011;11304;53.520;10.104;2023-01-24T06:44:26;10.20;;;6.13;;
22270;SDS011;11304;53.520;10.104;2023-01-24T06:46:52;10.45;;;6.60;;
22270;SDS011;11304;53.520;10.104;2023-01-24T06:49:18;12.10;;;6.75;;
22270;SDS011;11304;53.520;10.104;2023-01-24T06:51:50;8.95;;;6.03;;
22270;SDS011;11304;53.520;10.104;2023-01-24T06:54:17;11.75;;;6.38;;
22270;SDS011;11304;53.520;10.104;2023-01-24T06:56:43;11.93;;;6.57;;
22270;SDS011;11304;53.520;10.104;2023-01-24T06:59:09;10.73;;;6.65;;
22270;SDS011;11304;53.520;10.104;2023-01-24T07:01:35;12.77;;;6.72;;
22270;SDS011;11304;53.520;10.104;2023-01-24T07:04:01;11.93;;;7.10;;
22270;SDS011;11304;53.520;10.104;2023-01-24T07:06:27;10.15;;;6.95;;
22270;SDS011;11304;53.520;10.104;2023-01-24T07:08:53;11.95;;;6.85;;
22270;SDS011;11304;53.520;10.104;2023-01-24T07:11:19;12.18;;;6.80;;
22270;SDS011;11304;53.520;10.104;2023-01-24T07:13:47;10.38;;;6.35;;
22270;SDS011;11304;53.520;10.104;2023-01-24T07:16:14;10.48;;;5.95;;
22270;SDS011;11304;53.520;10.104;2023-01-24T07:18:40;11.43;;;5.63;;
22270;SDS011;11304;53.520;10.104;2023-01-24T07:21:06;11.88;;;6.60;;
22270;SDS011;11304;53.520;10.104;2023-01-24T07:23:33;10.38;;;5.85;;
22270;SDS011;11304;53.520;10.104;2023-01-24T07:25:59;12.70;;;6.13;;
22270;SDS011;11304;53.520;10.104;2023-01-24T07:28:26;11.75;;;5.97;;
22270;SDS011;11304;53.520;10.104;2023-01-24T07:30:52;11.63;;;6.32;;
22270;SDS011;11304;53.520;10.104;2023-01-24T07:33:18;14.95;;;6.82;;
22270;SDS011;11304;53.520;10.104;2023-01-24T07:35:45;9.55;;;6.28;;
22270;SDS011;11304;53.520;10.104;2023-01-24T07:38:11;11.07;;;5.93;;
22270;SDS011;11304;53.520;10.104;2023-01-24T07:40:38;13.57;;;6.32;;
22270;SDS011;11304;53.520;10.104;2023-01-24T07:43:04;14.80;;;6.32;;
22270;SDS011;11304;53.520;10.104;2023-01-24T07:45:31;12.50;;;7.80;;
22270;SDS011;11304;53.520;10.104;2023-01-24T07:50:26;12.60;;;6.07;;
22270;SDS011;11304;53.520;10.104;2023-01-24T07:52:52;13.48;;;7.03;;
22270;SDS011;11304;53.520;10.104;2023-01-24T07:55:19;11.50;;;7.05;;
22270;SDS011;11304;53.520;10.104;2023-01-24T07:57:45;10.43;;;6.35;;
22270;SDS011;11304;53.520;10.104;2023-01-24T08:00:12;17.25;;;7.75;;
22270;SDS011;11304;53.520;10.104;2023-01-24T08:02:44;13.02;;;7.70;;
22270;SDS011;11304;53.520;10.104;2023-01-24T08:05:10;13.05;;;7.63;;
22270;SDS011;11304;53.520;10.104;2023-01-24T08:07:36;12.18;;;7.10;;
22270;SDS011;11304;53.520;10.104;2023-01-24T08:10:03;10.85;;;6.18;;
22270;SDS011;11304;53.520;10.104;2023-01-24T08:12:29;11.93;;;6.30;;
22270;SDS011;11304;53.520;10.104;2023-01-24T08:14:55;8.27;;;5.47;;
22270;SDS011;11304;53.520;10.104;2023-01-24T08:17:21;13.85;;;6.40;;
22270;SDS011;11304;53.520;10.104;2023-01-24T08:19:48;13.25;;;6.50;;
22270;SDS011;11304;53.520;10.104;2023-01-24T08:22:14;13.35;;;6.97;;
22270;SDS011;11304;53.520;10.104;2023-01-24T08:24:40;10.25;;;6.10;;
22270;SDS011;11304;53.520;10.104;2023-01-24T08:27:06;11.63;;;6.80;;
22270;SDS011;11304;53.520;10.104;2023-01-24T08:29:32;12.20;;;6.35;;
22270;SDS011;11304;53.520;10.104;2023-01-24T08:31:58;10.77;;;6.03;;
22270;SDS011;11304;53.520;10.104;2023-01-24T08:34:24;11.23;;;5.25;;
22270;SDS011;11304;53.520;10.104;2023-01-24T08:36:51;10.43;;;6.13;;
22270;SDS011;11304;53.520;10.104;2023-01-24T08:39:17;13.38;;;6.05;;
22270;SDS011;11304;53.520;10.104;2023-01-24T08:41:43;13.05;;;6.68;;
22270;SDS011;11304;53.520;10.104;2023-01-24T08:44:11;13.82;;;6.90;;
22270;SDS011;11304;53.520;10.104;2023-01-24T08:46:37;12.40;;;6.45;;
22270;SDS011;11304;53.520;10.104;2023-01-24T08:49:03;10.43;;;6.70;;
22270;SDS011;11304;53.520;10.104;2023-01-24T08:51:29;14.25;;;6.78;;
22270;SDS011;11304;53.520;10.104;2023-01-24T08:53:55;11.35;;;6.28;;
22270;SDS011;11304;53.520;10.104;2023-01-24T08:56:21;11.85;;;6.90;;
22270;SDS011;11304;53.520;10.104;2023-01-24T08:58:47;10.95;;;6.05;;
22270;SDS011;11304;53.520;10.104;2023-01-24T09:01:13;12.73;;;6.60;;
22270;SDS011;11304;53.520;10.104;2023-01-24T09:03:40;12.27;;;6.95;;
22270;SDS011;11304;53.520;10.104;2023-01-24T09:06:06;12.95;;;7.00;;
22270;SDS011;11304;53.520;10.104;2023-01-24T09:08:32;13.68;;;7.22;;
22270;SDS011;11304;53.520;10.104;2023-01-24T09:10:59;12.63;;;7.05;;
22270;SDS011;11304;53.520;10.104;2023-01-24T09:13:25;13.85;;;7.45;;
22270;SDS011;11304;53.520;10.104;2023-01-24T09:15:51;11.63;;;7.43;;
22270;SDS011;11304;53.520;10.104;2023-01-24T09:18:17;13.45;;;6.97;;
22270;SDS011;11304;53.520;10.104;2023-01-24T09:20:43;13.98;;;6.63;;
22270;SDS011;11304;53.520;10.104;2023-01-24T09:23:10;13.30;;;7.35;;
22270;SDS011;11304;53.520;10.104;2023-01-24T09:25:38;12.25;;;7.30;;
22270;SDS011;11304;53.520;10.104;2023-01-24T09:28:04;15.50;;;7.47;;
22270;SDS011;11304;53.520;10.104;2023-01-24T09:30:30;14.20;;;6.28;;
22270;SDS011;11304;53.520;10.104;2023-01-24T09:32:57;11.50;;;6.20;;
22270;SDS011;11304;53.520;10.104;2023-01-24T09:35:23;12.27;;;6.43;;
22270;SDS011;11304;53.520;10.104;2023-01-24T09:37:51;13.30;;;7.00;;
22270;SDS011;11304;53.520;10.104;2023-01-24T09:40:21;10.80;;;6.63;;
22270;SDS011;11304;53.520;10.104;2023-01-24T09:45:29;11.07;;;5.82;;
22270;SDS011;11304;53.520;10.104;2023-01-24T09:48:00;11.52;;;6.10;;
22270;SDS011;11304;53.520;10.104;2023-01-24T09:52:54;10.77;;;6.68;;
22270;SDS011;11304;53.520;10.104;2023-01-24T09:55:25;11.40;;;6.50;;
22270;SDS011;11304;53.520;10.104;2023-01-24T09:58:03;9.35;;;5.43;;
22270;SDS011;11304;53.520;10.104;2023-01-24T10:00:32;15.52;;;7.60;;
22270;SDS011;11304;53.520;10.104;2023-01-24T10:02:59;14.98;;;7.60;;
22270;SDS011;11304;53.520;10.104;2023-01-24T10:05:34;10.43;;;6.38;;
22270;SDS011;11304;53.520;10.104;2023-01-24T10:18:34;11.32;;;6.88;;
22270;SDS011;11304;53.520;10.104;2023-01-24T10:23:36;12.68;;;7.00;;
22270;SDS011;11304;53.520;10.104;2023-01-24T10:28:43;9.82;;;6.22;;
22270;SDS011;11304;53.520;10.104;2023-01-24T10:31:11;12.23;;;7.47;;
22270;SDS011;11304;53.520;10.104;2023-01-24T10:33:46;13.10;;;6.85;;
22270;SDS011;11304;53.520;10.104;2023-01-24T10:39:14;12.95;;;6.95;;
22270;SDS011;11304;53.520;10.104;2023-01-24T10:41:40;13.55;;;7.03;;
22270;SDS011;11304;53.520;10.104;2023-01-24T10:48:58;13.80;;;7.18;;
22270;SDS011;11304;53.520;10.104;2023-01-24T10:51:25;10.80;;;6.57;;
22270;SDS011;11304;53.520;10.104;2023-01-24T10:53:52;11.40;;;5.97;;
22270;SDS011;11304;53.520;10.104;2023-01-24T11:01:23;12.63;;;7.10;;
22270;SDS011;11304;53.520;10.104;2023-01-24T11:03:50;12.27;;;7.25;;
22270;SDS011;11304;53.520;10.104;2023-01-24T11:06:33;9.98;;;6.50;;
22270;SDS011;11304;53.520;10.104;2023-01-24T11:09:02;11.13;;;7.15;;
22270;SDS011;11304;53.520;10.104;2023-01-24T11:11:29;12.35;;;6.97;;
22270;SDS011;11304;53.520;10.104;2023-01-24T11:13:56;10.50;;;7.50;;
22270;SDS011;11304;53.520;10.104;2023-01-24T11:16:26;11.82;;;7.10;;
22270;SDS011;11304;53.520;10.104;2023-01-24T11:18:57;13.00;;;7.85;;
22270;SDS011;11304;53.520;10.104;2023-01-24T11:21:24;12.75;;;8.18;;
22270;SDS011;11304;53.520;10.104;2023-01-24T11:26:21;10.60;;;6.80;;
22270;SDS011;11304;53.520;10.104;2023-01-24T11:28:54;11.07;;;7.00;;
22270;SDS011;11304;53.520;10.104;2023-01-24T11:31:36;14.73;;;7.50;;
22270;SDS011;11304;53.520;10.104;2023-01-24T11:34:11;11.52;;;6.70;;
22270;SDS011;11304;53.520;10.104;2023-01-24T11:41:52;11.85;;;7.38;;
22270;SDS011;11304;53.520;10.104;2023-01-24T12:10:18;13.00;;;8.40;;
22270;SDS011;11304;53.520;10.104;2023-01-24T12:13:03;11.77;;;8.23;;
22270;SDS011;11304;53.520;10.104;2023-01-24T12:23:13;9.77;;;6.70;;
22270;SDS011;11304;53.520;10.104;2023-01-24T12:25:42;13.57;;;7.32;;
22270;SDS011;11304;53.520;10.104;2023-01-24T12:28:12;10.85;;;7.00;;
22270;SDS011;11304;53.520;10.104;2023-01-24T12:30:43;14.90;;;7.90;;
22270;SDS011;11304;53.520;10.104;2023-01-24T12:33:54;10.48;;;7.03;;
22270;SDS011;11304;53.520;10.104;2023-01-24T12:36:05;13.40;;;7.88;;
22270;SDS011;11304;53.520;10.104;2023-01-24T12:43:41;11.77;;;7.65;;
22270;SDS011;11304;53.520;10.104;2023-01-24T12:46:19;11.32;;;8.15;;
22270;SDS011;11304;53.520;10.104;2023-01-24T12:48:49;16.88;;;8.25;;
22270;SDS011;11304;53.520;10.104;2023-01-24T12:54:06;11.68;;;7.68;;
22270;SDS011;11304;53.520;10.104;2023-01-24T12:59:09;14.90;;;8.80;;
22270;SDS011;11304;53.520;10.104;2023-01-24T13:07:12;13.40;;;7.93;;
22270;SDS011;11304;53.520;10.104;2023-01-24T13:12:14;12.02;;;8.25;;
22270;SDS011;11304;53.520;10.104;2023-01-24T13:14:45;11.95;;;8.27;;
22270;SDS011;11304;53.520;10.104;2023-01-24T13:23:05;15.32;;;9.52;;
22270;SDS011;11304;53.520;10.104;2023-01-24T13:28:24;13.50;;;8.55;;
22270;SDS011;11304;53.520;10.104;2023-01-24T13:33:33;14.70;;;8.63;;
22270;SDS011;11304;53.520;10.104;2023-01-24T13:36:05;13.82;;;8.82;;
22270;SDS011;11304;53.520;10.104;2023-01-24T13:38:36;13.02;;;8.35;;
22270;SDS011;11304;53.520;10.104;2023-01-24T13:41:05;15.48;;;9.15;;
22270;SDS011;11304;53.520;10.104;2023-01-24T13:46:13;15.20;;;8.75;;
22270;SDS011;11304;53.520;10.104;2023-01-24T13:48:47;13.80;;;8.68;;
22270;SDS011;11304;53.520;10.104;2023-01-24T13:51:42;14.00;;;9.18;;
22270;SDS011;11304;53.520;10.104;2023-01-24T13:59:37;12.18;;;8.80;;
22270;SDS011;11304;53.520;10.104;2023-01-24T14:04:48;13.35;;;9.10;;
22270;SDS011;11304;53.520;10.104;2023-01-24T14:07:56;13.77;;;8.80;;
22270;SDS011;11304;53.520;10.104;2023-01-24T14:10:04;13.77;;;8.65;;
22270;SDS011;11304;53.520;10.104;2023-01-24T14:12:31;12.93;;;8.43;;
22270;SDS011;11304;53.520;10.104;2023-01-24T14:15:13;12.95;;;8.90;;
22270;SDS011;11304;53.520;10.104;2023-01-24T14:17:49;11.50;;;8.48;;
22270;SDS011;11304;53.520;10.104;2023-01-24T14:20:21;12.27;;;9.13;;
22270;SDS011;11304;53.520;10.104;2023-01-24T14:22:47;15.48;;;8.98;;
22270;SDS011;11304;53.520;10.104;2023-01-24T14:28:02;15.55;;;9.82;;
22270;SDS011;11304;53.520;10.104;2023-01-24T14:30:34;13.27;;;8.75;;
22270;SDS011;11304;53.520;10.104;2023-01-24T14:33:04;11.52;;;8.18;;
22270;SDS011;11304;53.520;10.104;2023-01-24T14:35:31;17.73;;;9.20;;
22270;SDS011;11304;53.520;10.104;2023-01-24T14:38:14;12.55;;;9.23;;
22270;SDS011;11304;53.520;10.104;2023-01-24T14:40:41;14.50;;;9.30;;
22270;SDS011;11304;53.520;10.104;2023-01-24T14:43:08;14.30;;;9.38;;
22270;SDS011;11304;53.520;10.104;2023-01-24T14:48:06;12.43;;;8.70;;
22270;SDS011;11304;53.520;10.104;2023-01-24T14:50:34;14.50;;;8.80;;
22270;SDS011;11304;53.520;10.104;2023-01-24T14:53:01;12.60;;;7.85;;
22270;SDS011;11304;53.520;10.104;2023-01-24T14:55:45;16.95;;;9.82;;
22270;SDS011;11304;53.520;10.104;2023-01-24T14:58:12;13.60;;;8.98;;
22270;SDS011;11304;53.520;10.104;2023-01-24T15:00:38;13.38;;;8.55;;
22270;SDS011;11304;53.520;10.104;2023-01-24T15:03:04;12.25;;;9.45;;
22270;SDS011;11304;53.520;10.104;2023-01-24T15:05:32;17.95;;;11.63;;
22270;SDS011;11304;53.520;10.104;2023-01-24T15:07:59;16.10;;;11.55;;
22270;SDS011;11304;53.520;10.104;2023-01-24T15:10:26;16.88;;;9.82;;
22270;SDS011;11304;53.520;10.104;2023-01-24T15:12:53;13.20;;;10.23;;
22270;SDS011;11304;53.520;10.104;2023-01-24T15:15:20;18.35;;;11.07;;
22270;SDS011;11304;53.520;10.104;2023-01-24T15:17:47;16.80;;;10.52;;
22270;SDS011;11304;53.520;10.104;2023-01-24T15:20:15;15.50;;;10.45;;
22270;SDS011;11304;53.520;10.104;2023-01-24T15:25:25;16.05;;;10.02;;
22270;SDS011;11304;53.520;10.104;2023-01-24T15:27:51;17.92;;;11.32;;
22270;SDS011;11304;53.520;10.104;2023-01-24T15:30:21;14.23;;;10.45;;
22270;SDS011;11304;53.520;10.104;2023-01-24T15:32:48;15.55;;;11.50;;
22270;SDS011;11304;53.520;10.104;2023-01-24T15:37:58;15.88;;;10.98;;
22270;SDS011;11304;53.520;10.104;2023-01-24T15:40:24;14.33;;;10.43;;
22270;SDS011;11304;53.520;10.104;2023-01-24T15:42:50;16.13;;;10.18;;
22270;SDS011;11304;53.520;10.104;2023-01-24T15:45:36;17.27;;;10.75;;
22270;SDS011;11304;53.520;10.104;2023-01-24T15:48:11;18.58;;;12.52;;
22270;SDS011;11304;53.520;10.104;2023-01-24T15:50:37;18.13;;;12.30;;
22270;SDS011;11304;53.520;10.104;2023-01-24T15:53:50;18.00;;;12.30;;
22270;SDS011;11304;53.520;10.104;2023-01-24T15:56:17;21.27;;;13.35;;
22270;SDS011;11304;53.520;10.104;2023-01-24T15:58:48;17.63;;;11.52;;
22270;SDS011;11304;53.520;10.104;2023-01-24T16:01:15;16.83;;;11.90;;
22270;SDS011;11304;53.520;10.104;2023-01-24T16:03:41;19.52;;;14.13;;
22270;SDS011;11304;53.520;10.104;2023-01-24T16:06:07;19.25;;;12.48;;
22270;SDS011;11304;53.520;10.104;2023-01-24T16:08:33;17.92;;;13.13;;
22270;SDS011;11304;53.520;10.104;2023-01-24T16:10:59;19.10;;;13.50;;
22270;SDS011;11304;53.520;10.104;2023-01-24T16:13:33;20.40;;;13.52;;
22270;SDS011;11304;53.520;10.104;2023-01-24T16:16:00;22.65;;;14.40;;
22270;SDS011;11304;53.520;10.104;2023-01-24T16:18:27;18.23;;;13.50;;
22270;SDS011;11304;53.520;10.104;2023-01-24T16:20:53;19.90;;;13.07;;
22270;SDS011;11304;53.520;10.104;2023-01-24T16:23:19;24.20;;;14.48;;
22270;SDS011;11304;53.520;10.104;2023-01-24T16:25:49;21.20;;;13.70;;
22270;SDS011;11304;53.520;10.104;2023-01-24T16:28:19;22.33;;;14.15;;
22270;SDS011;11304;53.520;10.104;2023-01-24T16:30:46;21.90;;;14.40;;
22270;SDS011;11304;53.520;10.104;2023-01-24T16:33:13;22.02;;;13.70;;
22270;SDS011;11304;53.520;10.104;2023-01-24T16:35:39;23.33;;;15.50;;
22270;SDS011;11304;53.520;10.104;2023-01-24T16:38:05;20.55;;;15.00;;
22270;SDS011;11304;53.520;10.104;2023-01-24T16:40:31;20.63;;;14.55;;
22270;SDS011;11304;53.520;10.104;2023-01-24T16:42:57;21.35;;;14.95;;
22270;SDS011;11304;53.520;10.104;2023-01-24T16:45:27;22.50;;;14.65;;
22270;SDS011;11304;53.520;10.104;2023-01-24T16:47:54;21.20;;;14.45;;